createdAt,value
2019-04-03T00:00:47.173Z,1002.23
2019-04-03T00:01:47.239Z,1002.21
2019-04-03T00:02:47.189Z,1002.16
2019-04-03T00:03:47.139Z,1002.24
2019-04-03T00:04:47.137Z,1002.17
2019-04-03T00:05:47.118Z,1002.21
2019-04-03T00:06:47.114Z,1002.16
2019-04-03T00:07:47.155Z,1002.14
2019-04-03T00:08:47.086Z,1002.18
2019-04-03T00:09:47.073Z,1002.19
2019-04-03T00:10:47.067Z,1002.20
2019-04-03T00:11:47.127Z,1002.25
2019-04-03T00:12:47.146Z,1002.28
2019-04-03T00:13:47.034Z,1002.29
2019-04-03T00:14:47.022Z,1002.31
2019-04-03T00:15:47.018Z,1002.34
2019-04-03T00:16:47.014Z,1002.33
2019-04-03T00:17:46.992Z,1002.31
2019-04-03T00:18:47.954Z,1002.31
2019-04-03T00:19:47.692Z,1002.34
2019-04-03T00:20:48.811Z,1002.37
2019-04-03T00:21:46.949Z,1002.31
2019-04-03T00:22:46.992Z,1002.35
2019-04-03T00:23:46.926Z,1002.30
2019-04-03T00:24:46.942Z,1002.34
2019-04-03T00:25:46.899Z,1002.34
2019-04-03T00:26:46.890Z,1002.32
2019-04-03T00:27:46.876Z,1002.31
2019-04-03T00:28:46.865Z,1002.31
2019-04-03T00:29:46.864Z,1002.31
2019-04-03T00:30:46.926Z,1002.32
2019-04-03T00:31:46.837Z,1002.29
2019-04-03T00:32:46.830Z,1002.30
2019-04-03T00:33:46.867Z,1002.32
2019-04-03T00:34:46.798Z,1002.31
2019-04-03T00:35:46.793Z,1002.39
2019-04-03T00:36:46.776Z,1002.38
2019-04-03T00:37:46.780Z,1002.33
2019-04-03T00:38:46.753Z,1002.25
2019-04-03T00:39:46.741Z,1002.28
2019-04-03T00:40:46.790Z,1002.33
2019-04-03T00:41:46.728Z,1002.42
2019-04-03T00:42:46.785Z,1002.38
2019-04-03T00:43:46.702Z,1002.39
2019-04-03T00:44:46.687Z,1002.32
2019-04-03T00:45:46.676Z,1002.32
2019-04-03T00:46:46.669Z,1002.35
2019-04-03T00:47:46.682Z,1002.34
2019-04-03T00:48:46.650Z,1002.30
2019-04-03T00:49:46.635Z,1002.30
2019-04-03T00:50:46.700Z,1002.34
2019-04-03T00:51:46.608Z,1002.35
2019-04-03T00:52:46.601Z,1002.34
2019-04-03T00:53:46.586Z,1002.33
2019-04-03T00:54:46.576Z,1002.33
2019-04-03T00:55:46.569Z,1002.34
2019-04-03T00:56:46.609Z,1002.34
2019-04-03T00:57:46.543Z,1002.34
2019-04-03T00:58:46.530Z,1002.37
2019-04-03T00:59:46.535Z,1002.36
2019-04-03T01:00:46.514Z,1002.35
2019-04-03T01:01:46.690Z,1002.35
2019-04-03T01:02:46.490Z,1002.34
2019-04-03T01:03:46.479Z,1002.31
2019-04-03T01:04:46.473Z,1002.30
2019-04-03T01:05:46.460Z,1002.31
2019-04-03T01:06:46.459Z,1002.35
2019-04-03T01:07:46.430Z,1002.31
2019-04-03T01:08:46.472Z,1002.34
2019-04-03T01:09:46.409Z,1002.30
2019-04-03T01:10:46.397Z,1002.33
2019-04-03T01:11:46.593Z,1002.28
2019-04-03T01:12:46.376Z,1002.30
2019-04-03T01:13:46.363Z,1002.27
2019-04-03T01:14:46.404Z,1002.22
2019-04-03T01:15:46.342Z,1002.24
2019-04-03T01:16:46.331Z,1002.21
2019-04-03T01:17:46.325Z,1002.23
2019-04-03T01:18:46.376Z,1002.18
2019-04-03T01:19:46.327Z,1002.16
2019-04-03T01:20:46.293Z,1002.20
2019-04-03T01:21:46.320Z,1002.23
2019-04-03T01:22:46.280Z,1002.16
2019-04-03T01:23:46.262Z,1002.14
2019-04-03T01:24:46.306Z,1002.18
2019-04-03T01:25:46.254Z,1002.16
2019-04-03T01:26:46.223Z,1002.12
2019-04-03T01:27:46.377Z,1002.11
2019-04-03T01:28:46.256Z,1002.00
2019-04-03T01:29:46.257Z,1002.02
2019-04-03T01:30:46.174Z,1002.02
2019-04-03T01:31:46.163Z,1002.10
2019-04-03T01:32:46.829Z,1002.05
2019-04-03T01:33:47.076Z,1002.05
2019-04-03T01:34:47.652Z,1002.08
2019-04-03T01:35:47.459Z,1002.02
2019-04-03T01:36:46.584Z,1002.01
2019-04-03T01:37:46.096Z,1001.99
2019-04-03T01:38:46.310Z,1001.97
2019-04-03T01:39:46.077Z,1001.92
2019-04-03T01:40:46.240Z,1001.97
2019-04-03T01:41:46.063Z,1001.96
2019-04-03T01:42:46.121Z,1001.87
2019-04-03T01:43:46.030Z,1001.84
2019-04-03T01:44:46.024Z,1001.83
2019-04-03T01:45:46.086Z,1001.74
2019-04-03T01:46:46.001Z,1001.79
2019-04-03T01:47:45.996Z,1001.78
2019-04-03T01:48:45.982Z,1001.76
2019-04-03T01:49:45.972Z,1001.80
2019-04-03T01:50:45.960Z,1001.76
2019-04-03T01:51:46.076Z,1001.79
2019-04-03T01:52:45.939Z,1001.77
2019-04-03T01:53:45.925Z,1001.74
2019-04-03T01:54:45.909Z,1001.72
2019-04-03T01:55:45.903Z,1001.72
2019-04-03T01:56:45.960Z,1001.71
2019-04-03T01:57:45.959Z,1001.68
2019-04-03T01:58:45.867Z,1001.66
2019-04-03T01:59:45.904Z,1001.65
2019-04-03T02:00:45.847Z,1001.67
2019-04-03T02:01:45.889Z,1001.66
2019-04-03T02:02:45.822Z,1001.60
2019-04-03T02:03:45.814Z,1001.57
2019-04-03T02:04:45.802Z,1001.52
2019-04-03T02:05:45.860Z,1001.49
2019-04-03T02:06:45.790Z,1001.41
2019-04-03T02:07:45.772Z,1001.40
2019-04-03T02:08:45.756Z,1001.41
2019-04-03T02:09:46.582Z,1001.36
2019-04-03T02:10:48.247Z,1001.35
2019-04-03T02:11:45.776Z,1001.37
2019-04-03T02:12:45.712Z,1001.38
2019-04-03T02:13:45.895Z,1001.42
2019-04-03T02:14:45.691Z,1001.46
2019-04-03T02:15:45.674Z,1001.41
2019-04-03T02:16:45.802Z,1001.43
2019-04-03T02:17:45.666Z,1001.39
2019-04-03T02:18:45.648Z,1001.33
2019-04-03T02:19:45.793Z,1001.33
2019-04-03T02:20:45.619Z,1001.39
2019-04-03T02:21:45.609Z,1001.38
2019-04-03T02:22:45.678Z,1001.37
2019-04-03T02:23:45.709Z,1001.47
2019-04-03T02:24:45.580Z,1001.48
2019-04-03T02:25:45.711Z,1001.53
2019-04-03T02:26:45.561Z,1001.58
2019-04-03T02:27:45.540Z,1001.59
2019-04-03T02:28:45.589Z,1001.56
2019-04-03T02:29:45.656Z,1001.50
2019-04-03T02:30:47.135Z,1001.53
2019-04-03T02:31:45.498Z,1001.56
2019-04-03T02:32:45.494Z,1001.63
2019-04-03T02:33:45.498Z,1001.57
2019-04-03T02:34:45.472Z,1001.49
2019-04-03T02:35:45.484Z,1001.47
2019-04-03T02:36:45.687Z,1001.47
2019-04-03T02:37:48.267Z,1001.47
2019-04-03T02:38:45.559Z,1001.46
2019-04-03T02:39:45.547Z,1001.48
2019-04-03T02:40:45.403Z,1001.45
2019-04-03T02:41:45.390Z,1001.43
2019-04-03T02:42:45.380Z,1001.42
2019-04-03T02:43:46.708Z,1001.46
2019-04-03T02:44:45.402Z,1001.47
2019-04-03T02:45:45.347Z,1001.50
2019-04-03T02:46:45.648Z,1001.48
2019-04-03T02:47:45.520Z,1001.47
2019-04-03T02:48:45.708Z,1001.44
2019-04-03T02:49:45.298Z,1001.43
2019-04-03T02:50:47.908Z,1001.45
2019-04-03T02:51:45.279Z,1001.41
2019-04-03T02:52:45.271Z,1001.45
2019-04-03T02:53:45.448Z,1001.38
2019-04-03T02:54:45.330Z,1001.35
2019-04-03T02:55:45.343Z,1001.38
2019-04-03T02:56:46.023Z,1001.30
2019-04-03T02:57:48.402Z,1001.34
2019-04-03T02:58:45.200Z,1001.33
2019-04-03T02:59:45.244Z,1001.40
2019-04-03T03:00:45.208Z,1001.39
2019-04-03T03:01:45.169Z,1001.36
2019-04-03T03:02:46.175Z,1001.35
2019-04-03T03:03:48.492Z,1001.36
2019-04-03T03:04:45.147Z,1001.41
2019-04-03T03:05:45.355Z,1001.43
2019-04-03T03:06:45.111Z,1001.43
2019-04-03T03:07:45.217Z,1001.41
2019-04-03T03:08:45.230Z,1001.44
2019-04-03T03:09:46.617Z,1001.43
2019-04-03T03:10:45.152Z,1001.42
2019-04-03T03:11:45.204Z,1001.40
2019-04-03T03:12:45.232Z,1001.40
2019-04-03T03:13:45.038Z,1001.44
2019-04-03T03:14:45.024Z,1001.40
2019-04-03T03:15:45.527Z,1001.41
2019-04-03T03:16:45.025Z,1001.35
2019-04-03T03:17:45.279Z,1001.40
2019-04-03T03:18:44.984Z,1001.36
2019-04-03T03:19:44.974Z,1001.39
2019-04-03T03:20:45.087Z,1001.39
2019-04-03T03:21:45.580Z,1001.40
2019-04-03T03:22:44.991Z,1001.39
2019-04-03T03:23:44.923Z,1001.43
2019-04-03T03:24:45.112Z,1001.37
2019-04-03T03:25:44.901Z,1001.39
2019-04-03T03:26:44.953Z,1001.39
2019-04-03T03:27:45.162Z,1001.39
2019-04-03T03:28:46.844Z,1001.43
2019-04-03T03:29:44.859Z,1001.44
2019-04-03T03:30:54.542Z,1001.41
2019-04-03T03:32:05.409Z,1001.40
2019-04-03T03:32:46.078Z,1001.46
2019-04-03T03:33:45.325Z,1001.44
2019-04-03T03:34:55.501Z,1001.47
2019-04-03T03:35:48.594Z,1001.46
2019-04-03T03:36:44.885Z,1001.46
2019-04-03T03:37:44.886Z,1001.42
2019-04-03T03:38:45.168Z,1001.42
2019-04-03T03:39:44.756Z,1001.40
2019-04-03T03:40:47.210Z,1001.37
2019-04-03T03:41:45.020Z,1001.39
2019-04-03T03:42:44.858Z,1001.34
2019-04-03T03:43:45.244Z,1001.40
2019-04-03T03:44:46.357Z,1001.42
2019-04-03T03:45:44.741Z,1001.36
2019-04-03T03:46:44.943Z,1001.37
2019-04-03T03:47:44.720Z,1001.37
2019-04-03T03:48:45.536Z,1001.36
2019-04-03T03:49:48.394Z,1001.33
2019-04-03T03:50:44.632Z,1001.28
2019-04-03T03:51:44.743Z,1001.29
2019-04-03T03:52:44.608Z,1001.27
2019-04-03T03:53:46.073Z,1001.22
2019-04-03T03:54:45.250Z,1001.24
2019-04-03T03:55:44.573Z,1001.23
2019-04-03T03:56:44.818Z,1001.21
2019-04-03T03:57:44.559Z,1001.21
2019-04-03T03:58:45.923Z,1001.20
2019-04-03T03:59:44.533Z,1001.21
2019-04-03T04:00:44.555Z,1001.20
2019-04-03T04:01:44.535Z,1001.20
2019-04-03T04:02:45.219Z,1001.22
2019-04-03T04:03:44.599Z,1001.28
2019-04-03T04:04:48.042Z,1001.23
2019-04-03T04:05:44.468Z,1001.25
2019-04-03T04:06:44.490Z,1001.26
2019-04-03T04:07:44.509Z,1001.27
2019-04-03T04:08:45.391Z,1001.27
2019-04-03T04:09:44.423Z,1001.29
2019-04-03T04:10:44.599Z,1001.29
2019-04-03T04:11:44.401Z,1001.28
2019-04-03T04:12:44.401Z,1001.28
2019-04-03T04:13:47.553Z,1001.30
2019-04-03T04:14:44.503Z,1001.26
2019-04-03T04:15:44.361Z,1001.31
2019-04-03T04:16:44.400Z,1001.27
2019-04-03T04:17:48.494Z,1001.27
2019-04-03T04:18:45.482Z,1001.28
2019-04-03T04:19:44.311Z,1001.24
2019-04-03T04:20:44.455Z,1001.32
2019-04-03T04:21:45.129Z,1001.34
2019-04-03T04:22:44.287Z,1001.41
2019-04-03T04:23:44.408Z,1001.39
2019-04-03T04:24:44.257Z,1001.45
2019-04-03T04:25:44.669Z,1001.46
2019-04-03T04:26:44.316Z,1001.42
2019-04-03T04:27:44.385Z,1001.41
2019-04-03T04:28:44.213Z,1001.31
2019-04-03T04:29:44.206Z,1001.30
2019-04-03T04:30:44.268Z,1001.26
2019-04-03T04:31:44.484Z,1001.28
2019-04-03T04:32:46.331Z,1001.21
2019-04-03T04:33:44.175Z,1001.21
2019-04-03T04:34:44.149Z,1001.20
2019-04-03T04:35:44.157Z,1001.18
2019-04-03T04:36:44.135Z,1001.17
2019-04-03T04:37:44.320Z,1001.18
2019-04-03T04:38:44.122Z,1001.19
2019-04-03T04:39:44.312Z,1001.15
2019-04-03T04:40:44.087Z,1001.19
2019-04-03T04:41:44.130Z,1001.16
2019-04-03T04:42:44.250Z,1001.15
2019-04-03T04:43:44.246Z,1001.14
2019-04-03T04:44:44.051Z,1001.14
2019-04-03T04:45:44.309Z,1001.08
2019-04-03T04:46:44.686Z,1001.08
2019-04-03T04:47:46.470Z,1001.08
2019-04-03T04:48:44.158Z,1001.11
2019-04-03T04:49:43.990Z,1001.13
2019-04-03T04:50:44.061Z,1001.15
2019-04-03T04:51:44.020Z,1001.15
2019-04-03T04:52:43.962Z,1001.18
2019-04-03T04:53:43.950Z,1001.23
2019-04-03T04:54:44.060Z,1001.15
2019-04-03T04:55:43.923Z,1001.16
2019-04-03T04:56:43.910Z,1001.17
2019-04-03T04:57:43.977Z,1001.11
2019-04-03T04:58:44.008Z,1001.14
2019-04-03T04:59:45.155Z,1001.16
2019-04-03T05:00:46.571Z,1001.13
2019-04-03T05:01:43.855Z,1001.10
2019-04-03T05:02:43.853Z,1001.14
2019-04-03T05:03:44.127Z,1001.16
2019-04-03T05:04:43.825Z,1001.22
2019-04-03T05:05:43.818Z,1001.17
2019-04-03T05:06:43.812Z,1001.21
2019-04-03T05:07:43.849Z,1001.19
2019-04-03T05:08:43.779Z,1001.17
2019-04-03T05:09:43.775Z,1001.21
2019-04-03T05:10:43.882Z,1001.21
2019-04-03T05:11:43.804Z,1001.20
2019-04-03T05:12:45.564Z,1001.20
2019-04-03T05:13:46.350Z,1001.20
2019-04-03T05:14:43.717Z,1001.21
2019-04-03T05:15:43.834Z,1001.22
2019-04-03T05:16:43.698Z,1001.22
2019-04-03T05:17:43.829Z,1001.22
2019-04-03T05:18:43.773Z,1001.22
2019-04-03T05:19:43.935Z,1001.18
2019-04-03T05:20:43.656Z,1001.15
2019-04-03T05:21:43.663Z,1001.16
2019-04-03T05:22:43.635Z,1001.12
2019-04-03T05:23:43.850Z,1001.14
2019-04-03T05:24:43.615Z,1001.14
2019-04-03T05:25:43.600Z,1001.14
2019-04-03T05:26:43.735Z,1001.13
2019-04-03T05:27:43.583Z,1001.19
2019-04-03T05:28:54.373Z,1001.14
2019-04-03T05:29:44.628Z,1001.13
2019-04-03T05:30:43.546Z,1001.16
2019-04-03T05:31:43.536Z,1001.16
2019-04-03T05:32:43.523Z,1001.15
2019-04-03T05:33:43.520Z,1001.14
2019-04-03T05:34:44.426Z,1001.12
2019-04-03T05:35:45.309Z,1001.12
2019-04-03T05:36:44.006Z,1001.10
2019-04-03T05:37:43.627Z,1001.12
2019-04-03T05:38:43.460Z,1001.11
2019-04-03T05:39:43.445Z,1001.07
2019-04-03T05:40:43.522Z,1001.14
2019-04-03T05:41:43.435Z,1001.09
2019-04-03T05:42:43.418Z,1001.13
2019-04-03T05:43:43.530Z,1001.13
2019-04-03T05:44:43.395Z,1001.11
2019-04-03T05:45:43.396Z,1001.09
2019-04-03T05:46:43.368Z,1001.09
2019-04-03T05:47:43.491Z,1001.07
2019-04-03T05:48:43.346Z,1001.06
2019-04-03T05:49:46.249Z,1001.06
2019-04-03T05:50:43.370Z,1001.07
2019-04-03T05:51:43.576Z,1001.10
2019-04-03T05:52:43.306Z,1001.07
2019-04-03T05:53:43.405Z,1001.11
2019-04-03T05:54:44.586Z,1001.07
2019-04-03T05:55:43.347Z,1001.08
2019-04-03T05:56:43.427Z,1001.10
2019-04-03T05:57:45.987Z,1001.11
2019-04-03T05:58:54.440Z,1001.11
2019-04-03T05:59:44.590Z,1001.18
2019-04-03T06:00:43.266Z,1001.15
2019-04-03T06:01:46.549Z,1001.14
2019-04-03T06:02:43.199Z,1001.24
2019-04-03T06:03:45.622Z,1001.17
2019-04-03T06:04:43.214Z,1001.20
2019-04-03T06:05:44.034Z,1001.22
2019-04-03T06:06:45.917Z,1001.20
2019-04-03T06:07:43.167Z,1001.21
2019-04-03T06:08:43.156Z,1001.22
2019-04-03T06:09:43.179Z,1001.21
2019-04-03T06:10:43.105Z,1001.21
2019-04-03T06:11:43.099Z,1001.21
2019-04-03T06:12:45.375Z,1001.20
2019-04-03T06:13:43.327Z,1001.17
2019-04-03T06:14:43.065Z,1001.15
2019-04-03T06:15:43.060Z,1001.14
2019-04-03T06:16:43.042Z,1001.16
2019-04-03T06:17:43.045Z,1001.12
2019-04-03T06:18:43.161Z,1001.15
2019-04-03T06:19:43.307Z,1001.13
2019-04-03T06:20:43.931Z,1001.12
2019-04-03T06:21:45.710Z,1001.16
2019-04-03T06:22:43.214Z,1001.11
2019-04-03T06:23:42.995Z,1001.13
2019-04-03T06:24:42.979Z,1001.10
2019-04-03T06:25:42.979Z,1001.10
2019-04-03T06:26:44.634Z,1001.09
2019-04-03T06:27:45.947Z,1001.13
2019-04-03T06:28:44.950Z,1001.13
2019-04-03T06:29:42.909Z,1001.03
2019-04-03T06:30:42.891Z,1001.09
2019-04-03T06:31:42.878Z,1001.11
2019-04-03T06:32:42.861Z,1001.07
2019-04-03T06:33:42.864Z,1001.07
2019-04-03T06:34:43.781Z,1001.10
2019-04-03T06:35:44.548Z,1001.11
2019-04-03T06:36:42.830Z,1001.06
2019-04-03T06:37:42.816Z,1001.09
2019-04-03T06:38:43.058Z,1001.05
2019-04-03T06:39:42.799Z,1001.00
2019-04-03T06:40:45.015Z,1000.95
2019-04-03T06:41:43.850Z,1000.95
2019-04-03T06:42:44.937Z,1000.94
2019-04-03T06:43:42.799Z,1000.95
2019-04-03T06:44:42.896Z,1000.89
2019-04-03T06:45:43.969Z,1000.95
2019-04-03T06:46:42.914Z,1000.92
2019-04-03T06:47:42.822Z,1000.90
2019-04-03T06:48:42.918Z,1000.90
2019-04-03T06:49:43.034Z,1000.90
2019-04-03T06:50:42.723Z,1000.92
2019-04-03T06:51:42.739Z,1000.96
2019-04-03T06:52:43.029Z,1001.01
2019-04-03T06:53:42.642Z,1000.99
2019-04-03T06:54:44.247Z,1000.99
2019-04-03T06:55:42.628Z,1001.01
2019-04-03T06:56:42.598Z,1001.03
2019-04-03T06:57:42.593Z,1000.98
2019-04-03T06:58:44.392Z,1001.00
2019-04-03T06:59:42.811Z,1001.05
2019-04-03T07:00:42.619Z,1001.03
2019-04-03T07:01:42.547Z,1000.94
2019-04-03T07:02:42.546Z,1001.00
2019-04-03T07:03:42.525Z,1001.04
2019-04-03T07:04:42.509Z,1001.03
2019-04-03T07:05:42.898Z,1001.03
2019-04-03T07:06:42.792Z,1001.05
2019-04-03T07:07:42.700Z,1001.08
2019-04-03T07:08:42.759Z,1001.10
2019-04-03T07:09:42.459Z,1001.10
2019-04-03T07:10:54.202Z,1001.04
2019-04-03T07:11:44.083Z,1001.02
2019-04-03T07:12:42.562Z,1001.05
2019-04-03T07:13:42.591Z,1001.13
2019-04-03T07:14:42.406Z,1001.13
2019-04-03T07:15:42.390Z,1001.09
2019-04-03T07:16:42.404Z,1001.10
2019-04-03T07:17:42.449Z,1001.10
2019-04-03T07:18:42.357Z,1001.11
2019-04-03T07:19:42.347Z,1001.15
2019-04-03T07:20:42.344Z,1001.11
2019-04-03T07:21:42.322Z,1001.09
2019-04-03T07:22:42.391Z,1001.08
2019-04-03T07:23:42.370Z,1001.06
2019-04-03T07:24:42.291Z,1000.98
2019-04-03T07:25:42.285Z,1000.96
2019-04-03T07:26:42.274Z,1000.95
2019-04-03T07:27:42.475Z,1000.91
2019-04-03T07:28:42.451Z,1000.93
2019-04-03T07:29:42.255Z,1000.92
2019-04-03T07:30:42.232Z,1000.94
2019-04-03T07:31:42.223Z,1000.98
2019-04-03T07:32:42.298Z,1001.02
2019-04-03T07:33:42.193Z,1000.98
2019-04-03T07:34:42.187Z,1001.02
2019-04-03T07:35:42.418Z,1000.99
2019-04-03T07:36:44.670Z,1001.00
2019-04-03T07:37:42.151Z,1000.96
2019-04-03T07:38:42.162Z,1001.00
2019-04-03T07:39:42.132Z,1000.98
2019-04-03T07:40:42.117Z,1001.06
2019-04-03T07:41:42.194Z,1001.05
2019-04-03T07:42:42.220Z,1001.03
2019-04-03T07:43:42.139Z,1001.03
2019-04-03T07:44:42.073Z,1001.00
2019-04-03T07:45:43.852Z,1001.00
2019-04-03T07:46:42.049Z,1001.03
2019-04-03T07:47:42.362Z,1000.98
2019-04-03T07:48:42.086Z,1001.00
2019-04-03T07:49:42.017Z,1001.06
2019-04-03T07:50:42.348Z,1001.07
2019-04-03T07:51:43.242Z,1001.05
2019-04-03T07:52:41.989Z,1001.06
2019-04-03T07:53:42.056Z,1001.04
2019-04-03T07:54:41.969Z,1001.02
2019-04-03T07:55:43.694Z,1000.99
2019-04-03T07:56:42.019Z,1001.01
2019-04-03T07:57:42.088Z,1000.98
2019-04-03T07:58:42.175Z,1000.98
2019-04-03T07:59:41.986Z,1000.96
2019-04-03T08:00:42.138Z,1000.93
2019-04-03T08:01:41.991Z,1000.95
2019-04-03T08:02:47.241Z,1000.98
2019-04-03T08:03:43.064Z,1000.95
2019-04-03T08:04:41.855Z,1000.94
2019-04-03T08:05:41.904Z,1001.01
2019-04-03T08:06:41.835Z,1001.01
2019-04-03T08:07:41.829Z,1000.97
2019-04-03T08:08:41.813Z,1000.96
2019-04-03T08:09:41.865Z,1000.98
2019-04-03T08:10:42.007Z,1000.98
2019-04-03T08:11:41.775Z,1000.95
2019-04-03T08:12:41.829Z,1001.02
2019-04-03T08:13:41.760Z,1001.01
2019-04-03T08:14:41.989Z,1000.98
2019-04-03T08:15:42.729Z,1000.97
2019-04-03T08:16:43.189Z,1000.97
2019-04-03T08:17:41.717Z,1000.96
2019-04-03T08:18:41.704Z,1000.98
2019-04-03T08:19:41.691Z,1001.00
2019-04-03T08:20:41.676Z,1001.01
2019-04-03T08:21:41.722Z,1001.00
2019-04-03T08:22:41.739Z,1000.96
2019-04-03T08:23:41.655Z,1000.96
2019-04-03T08:24:41.660Z,1000.98
2019-04-03T08:25:42.961Z,1000.92
2019-04-03T08:26:42.668Z,1000.95
2019-04-03T08:27:41.601Z,1000.93
2019-04-03T08:28:41.595Z,1000.91
2019-04-03T08:29:41.578Z,1000.86
2019-04-03T08:30:41.569Z,1000.90
2019-04-03T08:31:44.224Z,1000.89
2019-04-03T08:32:41.648Z,1000.85
2019-04-03T08:33:41.538Z,1000.78
2019-04-03T08:34:41.532Z,1000.82
2019-04-03T08:35:41.524Z,1000.78
2019-04-03T08:36:41.663Z,1000.77
2019-04-03T08:37:42.180Z,1000.77
2019-04-03T08:38:43.991Z,1000.70
2019-04-03T08:39:41.502Z,1000.75
2019-04-03T08:40:41.470Z,1000.74
2019-04-03T08:41:41.449Z,1000.74
2019-04-03T08:42:41.496Z,1000.79
2019-04-03T08:43:41.430Z,1000.78
2019-04-03T08:44:41.419Z,1000.68
2019-04-03T08:45:41.413Z,1000.73
2019-04-03T08:46:43.911Z,1000.73
2019-04-03T08:47:44.527Z,1000.71
2019-04-03T08:48:41.410Z,1000.70
2019-04-03T08:49:41.367Z,1000.70
2019-04-03T08:50:41.355Z,1000.74
2019-04-03T08:51:41.343Z,1000.69
2019-04-03T08:52:41.335Z,1000.66
2019-04-03T08:53:41.377Z,1000.70
2019-04-03T08:54:42.150Z,1000.66
2019-04-03T08:55:41.297Z,1000.68
2019-04-03T08:56:41.289Z,1000.66
2019-04-03T08:57:41.274Z,1000.64
2019-04-03T08:58:41.438Z,1000.68
2019-04-03T08:59:41.257Z,1000.68
2019-04-03T09:00:41.240Z,1000.66
2019-04-03T09:01:41.351Z,1000.62
2019-04-03T09:02:43.766Z,1000.63
2019-04-03T09:03:41.225Z,1000.62
2019-04-03T09:04:41.194Z,1000.57
2019-04-03T09:05:41.189Z,1000.58
2019-04-03T09:06:41.182Z,1000.62
2019-04-03T09:07:41.532Z,1000.59
2019-04-03T09:08:41.187Z,1000.58
2019-04-03T09:09:41.153Z,1000.64
2019-04-03T09:10:41.130Z,1000.61
2019-04-03T09:11:41.281Z,1000.61
2019-04-03T09:12:41.120Z,1000.63
2019-04-03T09:13:41.351Z,1000.58
2019-04-03T09:14:41.085Z,1000.69
2019-04-03T09:15:41.080Z,1000.63
2019-04-03T09:16:41.296Z,1000.66
2019-04-03T09:17:41.301Z,1000.60
2019-04-03T09:18:41.051Z,1000.63
2019-04-03T09:19:42.204Z,1000.61
2019-04-03T09:20:43.267Z,1000.59
2019-04-03T09:21:41.069Z,1000.61
2019-04-03T09:22:41.038Z,1000.58
2019-04-03T09:23:41.090Z,1000.56
2019-04-03T09:24:41.035Z,1000.56
2019-04-03T09:25:40.966Z,1000.52
2019-04-03T09:26:40.961Z,1000.40
2019-04-03T09:27:41.293Z,1000.41
2019-04-03T09:28:42.183Z,1000.41
2019-04-03T09:29:41.006Z,1000.42
2019-04-03T09:30:40.918Z,1000.37
2019-04-03T09:31:40.953Z,1000.34
2019-04-03T09:32:41.016Z,1000.32
2019-04-03T09:33:40.885Z,1000.32
2019-04-03T09:34:40.870Z,1000.29
2019-04-03T09:35:42.838Z,1000.27
2019-04-03T09:36:40.856Z,1000.22
2019-04-03T09:37:41.311Z,1000.31
2019-04-03T09:38:41.885Z,1000.24
2019-04-03T09:39:40.816Z,1000.17
2019-04-03T09:40:40.842Z,1000.21
2019-04-03T09:41:40.948Z,1000.16
2019-04-03T09:42:40.794Z,1000.17
2019-04-03T09:43:41.002Z,1000.14
2019-04-03T09:44:40.817Z,1000.19
2019-04-03T09:45:40.752Z,1000.11
2019-04-03T09:46:41.062Z,1000.10
2019-04-03T09:47:41.014Z,1000.10
2019-04-03T09:48:40.728Z,1000.11
2019-04-03T09:49:43.460Z,1000.13
2019-04-03T09:50:40.703Z,1000.14
2019-04-03T09:51:40.718Z,1000.17
2019-04-03T09:52:48.452Z,1000.14
2019-04-03T09:53:41.675Z,1000.13
2019-04-03T09:54:40.662Z,1000.19
2019-04-03T09:55:40.661Z,1000.17
2019-04-03T09:56:56.129Z,1000.19
2019-04-03T09:57:41.659Z,1000.16
2019-04-03T09:58:40.757Z,1000.14
2019-04-03T09:59:40.618Z,1000.16
2019-04-03T10:00:41.983Z,1000.17
2019-04-03T10:01:40.746Z,1000.13
2019-04-03T10:02:40.571Z,1000.11
2019-04-03T10:03:40.604Z,1000.11
2019-04-03T10:04:40.860Z,1000.13
2019-04-03T10:05:40.677Z,1000.07
2019-04-03T10:06:40.547Z,1000.10
2019-04-03T10:07:40.631Z,1000.14
2019-04-03T10:08:41.138Z,1000.07
2019-04-03T10:09:43.109Z,1000.11
2019-04-03T10:10:40.487Z,1000.06
2019-04-03T10:11:40.480Z,1000.16
2019-04-03T10:12:42.608Z,1000.07
2019-04-03T10:13:40.603Z,1000.06
2019-04-03T10:14:40.609Z,1000.03
2019-04-03T10:15:40.433Z,999.97
2019-04-03T10:16:40.714Z,1000.02
2019-04-03T10:17:40.411Z,999.98
2019-04-03T10:18:41.775Z,1000.01
2019-04-03T10:19:40.441Z,999.97
2019-04-03T10:20:40.373Z,999.92
2019-04-03T10:21:41.018Z,999.89
2019-04-03T10:22:40.571Z,999.98
2019-04-03T10:23:40.347Z,999.92
2019-04-03T10:24:40.389Z,999.96
2019-04-03T10:25:40.387Z,999.89
2019-04-03T10:26:40.894Z,999.94
2019-04-03T10:27:42.656Z,999.88
2019-04-03T10:28:42.562Z,999.92
2019-04-03T10:29:40.299Z,999.88
2019-04-03T10:30:40.266Z,999.84
2019-04-03T10:31:40.483Z,999.84
2019-04-03T10:32:40.292Z,999.85
2019-04-03T10:33:40.239Z,999.85
2019-04-03T10:34:40.222Z,999.81
2019-04-03T10:35:40.507Z,999.80
2019-04-03T10:36:42.088Z,999.78
2019-04-03T10:37:40.190Z,999.75
2019-04-03T10:38:41.924Z,999.74
2019-04-03T10:39:43.807Z,999.75
2019-04-03T10:40:40.217Z,999.75
2019-04-03T10:41:40.145Z,999.77
2019-04-03T10:42:40.243Z,999.81
2019-04-03T10:43:40.131Z,999.72
2019-04-03T10:44:40.114Z,999.79
2019-04-03T10:45:40.285Z,999.70
2019-04-03T10:46:40.097Z,999.71
2019-04-03T10:47:43.390Z,999.65
2019-04-03T10:48:40.159Z,999.63
2019-04-03T10:49:40.374Z,999.64
2019-04-03T10:50:40.048Z,999.70
2019-04-03T10:51:41.590Z,999.67
2019-04-03T10:52:40.184Z,999.66
2019-04-03T10:53:40.017Z,999.61
2019-04-03T10:54:40.240Z,999.59
2019-04-03T10:55:40.135Z,999.58
2019-04-03T10:56:40.058Z,999.67
2019-04-03T10:57:39.977Z,999.59
2019-04-03T10:58:42.239Z,999.60
2019-04-03T10:59:40.246Z,999.56
2019-04-03T11:00:39.941Z,999.58
2019-04-03T11:01:40.066Z,999.55
2019-04-03T11:02:39.977Z,999.57
2019-04-03T11:03:39.910Z,999.53
2019-04-03T11:04:39.903Z,999.53
2019-04-03T11:05:39.892Z,999.46
2019-04-03T11:06:40.146Z,999.48
2019-04-03T11:07:40.191Z,999.51
2019-04-03T11:08:40.135Z,999.50
2019-04-03T11:09:40.090Z,999.53
2019-04-03T11:10:39.881Z,999.40
2019-04-03T11:11:42.713Z,999.45
2019-04-03T11:12:39.814Z,999.42
2019-04-03T11:13:39.861Z,999.51
2019-04-03T11:14:40.118Z,999.40
2019-04-03T11:15:39.785Z,999.32
2019-04-03T11:16:39.772Z,999.33
2019-04-03T11:17:39.779Z,999.36
2019-04-03T11:18:39.755Z,999.30
2019-04-03T11:19:39.790Z,999.29
2019-04-03T11:20:41.014Z,999.28
2019-04-03T11:21:39.825Z,999.23
2019-04-03T11:22:42.173Z,999.16
2019-04-03T11:23:44.301Z,999.17
2019-04-03T11:24:42.239Z,999.16
2019-04-03T11:25:41.928Z,999.14
2019-04-03T11:26:39.738Z,999.08
2019-04-03T11:27:43.010Z,999.03
2019-04-03T11:28:40.145Z,999.03
2019-04-03T11:29:41.987Z,998.96
2019-04-03T11:30:39.847Z,998.93
2019-04-03T11:31:42.244Z,998.92
2019-04-03T11:32:41.369Z,998.89
2019-04-03T11:33:39.982Z,998.89
2019-04-03T11:34:39.641Z,998.89
2019-04-03T11:35:39.570Z,998.89
2019-04-03T11:36:39.557Z,998.85
2019-04-03T11:37:39.604Z,998.81
2019-04-03T11:38:39.543Z,998.82
2019-04-03T11:39:39.583Z,998.81
2019-04-03T11:40:39.532Z,998.79
2019-04-03T11:41:39.508Z,998.77
2019-04-03T11:42:39.512Z,998.79
2019-04-03T11:43:39.765Z,998.73
2019-04-03T11:44:39.537Z,998.70
2019-04-03T11:45:39.763Z,998.71
2019-04-03T11:46:39.756Z,998.64
2019-04-03T11:47:39.445Z,998.59
2019-04-03T11:48:42.292Z,998.60
2019-04-03T11:49:39.437Z,998.60
2019-04-03T11:50:40.188Z,998.52
2019-04-03T11:51:39.572Z,998.53
2019-04-03T11:52:39.386Z,998.47
2019-04-03T11:53:39.378Z,998.49
2019-04-03T11:54:39.995Z,998.57
2019-04-03T11:55:41.321Z,998.53
2019-04-03T11:56:39.396Z,998.57
2019-04-03T11:57:39.338Z,998.53
2019-04-03T11:58:39.320Z,998.58
2019-04-03T11:59:39.315Z,998.49
2019-04-03T12:00:39.304Z,998.48
2019-04-03T12:01:39.367Z,998.60
2019-04-03T12:02:40.329Z,998.48
2019-04-03T12:03:40.762Z,998.49
2019-04-03T12:04:39.257Z,998.48
2019-04-03T12:05:39.353Z,998.36
2019-04-03T12:06:39.569Z,998.33
2019-04-03T12:07:39.281Z,998.34
2019-04-03T12:08:39.225Z,998.34
2019-04-03T12:09:39.559Z,998.33